createdAt,value
2022-08-11T00:02:01.702Z,38.74
2022-08-11T00:04:36.226Z,39.77
2022-08-11T00:07:06.109Z,39.96
2022-08-11T00:09:39.404Z,39.81
2022-08-11T00:12:14.506Z,39.32
2022-08-11T00:14:43.101Z,38.96
2022-08-11T00:17:14.688Z,39.46
2022-08-11T00:20:12.447Z,39.39
2022-08-11T00:22:34.216Z,39.35
2022-08-11T00:25:11.188Z,38.42
2022-08-11T00:27:40.657Z,37.98
2022-08-11T00:30:10.809Z,38.16
2022-08-11T00:32:39.713Z,38.56
2022-08-11T00:35:56.230Z,39.20
2022-08-11T00:38:01.090Z,39.54
2022-08-11T00:40:51.744Z,39.45
2022-08-11T00:43:55.546Z,39.31
2022-08-11T00:46:25.302Z,38.94
2022-08-11T00:49:10.363Z,39.01
2022-08-11T00:52:03.981Z,39.45
2022-08-11T00:54:50.423Z,39.24
2022-08-11T00:57:36.941Z,40.16
2022-08-11T01:00:14.820Z,42.04
2022-08-11T01:02:47.284Z,42.38
2022-08-11T01:05:35.732Z,42.69
2022-08-11T01:08:42.571Z,42.42
2022-08-11T01:11:15.381Z,42.71
2022-08-11T01:14:00.092Z,42.56
2022-08-11T01:16:36.174Z,42.98
2022-08-11T01:19:31.310Z,42.98
2022-08-11T01:22:19.116Z,42.99
2022-08-11T01:24:57.585Z,43.00
2022-08-11T01:27:42.698Z,43.09
2022-08-11T01:30:46.227Z,42.77
2022-08-11T01:33:50.566Z,42.53
2022-08-11T01:36:20.225Z,43.29
2022-08-11T01:39:19.459Z,43.67
2022-08-11T01:42:05.335Z,42.87
2022-08-11T01:44:53.378Z,43.41
2022-08-11T01:47:22.837Z,43.85
2022-08-11T01:50:22.419Z,43.93
2022-08-11T01:53:07.552Z,43.82
2022-08-11T01:56:01.433Z,44.06
2022-08-11T01:58:43.280Z,43.35
2022-08-11T02:01:33.781Z,42.87
2022-08-11T02:04:09.161Z,43.21
2022-08-11T02:06:50.265Z,42.32
2022-08-11T02:09:28.981Z,41.89
2022-08-11T02:12:27.160Z,42.07
2022-08-11T02:15:29.216Z,42.10
2022-08-11T02:18:01.795Z,41.98
2022-08-11T02:20:48.134Z,41.69
2022-08-11T02:24:05.254Z,41.99
2022-08-11T02:26:41.740Z,41.80
2022-08-11T02:29:43.422Z,41.89
2022-08-11T02:32:30.029Z,41.75
2022-08-11T02:35:08.812Z,41.93
2022-08-11T02:38:05.012Z,41.30
2022-08-11T02:40:42.984Z,42.54
2022-08-11T02:43:35.018Z,42.16
2022-08-11T02:46:22.527Z,42.55
2022-08-11T02:48:55.182Z,42.96
2022-08-11T02:52:06.095Z,43.50
2022-08-11T02:54:44.575Z,43.81
2022-08-11T02:57:23.546Z,43.94
2022-08-11T03:00:13.290Z,44.45
2022-08-11T03:03:00.977Z,44.71
2022-08-11T03:05:45.229Z,44.09
2022-08-11T03:08:41.856Z,43.68
2022-08-11T03:11:52.212Z,43.66
2022-08-11T03:14:36.027Z,44.44
2022-08-11T03:17:30.794Z,44.92
2022-08-11T03:20:06.880Z,44.83
2022-08-11T03:22:45.026Z,45.12
2022-08-11T03:25:37.543Z,45.68
2022-08-11T03:28:26.151Z,45.99
2022-08-11T03:30:57.136Z,46.47
2022-08-11T03:33:28.404Z,46.73
2022-08-11T03:36:15.916Z,47.12
2022-08-11T03:39:03.824Z,47.28
2022-08-11T03:41:57.665Z,47.45
2022-08-11T03:45:15.578Z,48.07
2022-08-11T03:48:08.006Z,48.18
2022-08-11T03:51:16.009Z,48.79
2022-08-11T03:54:20.210Z,49.11
2022-08-11T03:57:05.457Z,49.34
2022-08-11T03:59:50.614Z,48.52
2022-08-11T04:02:29.656Z,48.28
2022-08-11T04:04:59.034Z,48.88
2022-08-11T04:07:44.379Z,48.42
2022-08-11T04:10:35.290Z,48.64
2022-08-11T04:13:29.855Z,48.82
2022-08-11T04:16:18.121Z,49.33
2022-08-11T04:19:05.824Z,49.09
2022-08-11T04:21:35.551Z,48.61
2022-08-11T04:24:35.290Z,48.03
2022-08-11T04:27:24.957Z,48.45
2022-08-11T04:30:37.655Z,47.71
2022-08-11T04:33:44.566Z,49.13
2022-08-11T04:36:52.431Z,49.09
2022-08-11T04:40:01.421Z,48.75
2022-08-11T04:43:00.027Z,48.83
2022-08-11T04:45:40.559Z,48.59
2022-08-11T04:48:28.879Z,48.34
2022-08-11T04:51:16.961Z,48.03
2022-08-11T04:54:26.377Z,48.34
2022-08-11T04:57:08.657Z,47.81
2022-08-11T05:00:14.115Z,48.18
2022-08-11T05:02:59.338Z,48.92
2022-08-11T05:05:56.271Z,48.46
2022-08-11T05:08:49.026Z,48.85
2022-08-11T05:11:49.722Z,48.78
2022-08-11T05:14:52.630Z,48.71
2022-08-11T05:17:34.617Z,48.73
2022-08-11T05:20:01.630Z,48.93
2022-08-11T05:22:31.079Z,47.79
2022-08-11T05:25:11.701Z,47.72
2022-08-11T05:28:05.331Z,47.81
2022-08-11T05:30:34.517Z,48.36
2022-08-11T05:33:13.672Z,48.29
2022-08-11T05:36:01.387Z,47.14
2022-08-11T05:38:34.796Z,47.40
2022-08-11T05:41:03.101Z,48.14
2022-08-11T05:43:30.334Z,47.07
2022-08-11T05:46:06.259Z,47.60
2022-08-11T05:48:36.878Z,48.21
2022-08-11T05:51:10.479Z,49.94
2022-08-11T05:53:46.783Z,49.50
2022-08-11T05:56:14.970Z,49.95
2022-08-11T05:58:46.657Z,49.04
2022-08-11T06:01:21.363Z,49.54
2022-08-11T06:03:58.474Z,51.24
2022-08-11T06:06:28.100Z,51.10
2022-08-11T06:09:00.414Z,50.38
2022-08-11T06:11:42.945Z,49.82
2022-08-11T06:14:13.339Z,49.75
2022-08-11T06:16:42.762Z,49.35
2022-08-11T06:19:10.908Z,49.27
2022-08-11T06:21:38.538Z,49.44
2022-08-11T06:24:14.177Z,50.74
2022-08-11T06:27:10.681Z,50.50
2022-08-11T06:29:47.738Z,48.62
2022-08-11T06:32:17.026Z,47.60
2022-08-11T06:35:02.087Z,46.95
2022-08-11T06:38:06.973Z,46.99
2022-08-11T06:40:33.872Z,48.78
2022-08-11T06:43:18.842Z,45.32
2022-08-11T06:46:08.618Z,45.23
2022-08-11T06:48:39.197Z,45.20
2022-08-11T06:51:09.845Z,46.92
2022-08-11T06:54:03.903Z,46.43
2022-08-11T06:56:37.221Z,43.19
2022-08-11T06:59:04.039Z,40.40
2022-08-11T07:01:43.865Z,41.28
2022-08-11T07:04:28.913Z,38.64
2022-08-11T07:07:10.518Z,36.86
2022-08-11T07:10:13.380Z,36.64
2022-08-11T07:12:48.230Z,37.26
2022-08-11T07:15:15.420Z,38.14
2022-08-11T07:17:46.539Z,37.25
2022-08-11T07:20:14.136Z,35.30
2022-08-11T07:22:49.225Z,34.68
2022-08-11T07:25:17.356Z,35.21
2022-08-11T07:27:59.999Z,37.24
2022-08-11T07:30:27.491Z,36.35
2022-08-11T07:32:59.071Z,37.50
2022-08-11T07:35:36.278Z,36.88
2022-08-11T07:38:08.135Z,37.21
2022-08-11T07:40:36.690Z,35.31
2022-08-11T07:43:05.381Z,35.12
2022-08-11T07:45:33.486Z,34.77
2022-08-11T07:48:01.137Z,32.97
2022-08-11T07:50:29.707Z,33.05
2022-08-11T07:53:00.762Z,32.04
2022-08-11T07:55:50.135Z,34.42
2022-08-11T07:58:19.802Z,34.29
2022-08-11T08:00:59.170Z,33.32
2022-08-11T08:03:30.693Z,32.57
2022-08-11T08:05:58.566Z,32.80
2022-08-11T08:08:27.070Z,32.00
2022-08-11T08:10:56.785Z,33.83
2022-08-11T08:13:23.618Z,34.44
2022-08-11T08:15:51.491Z,31.30
2022-08-11T08:18:25.999Z,32.08
2022-08-11T08:20:57.854Z,30.69
2022-08-11T08:23:27.771Z,30.41
2022-08-11T08:25:54.835Z,29.92
2022-08-11T08:28:22.185Z,31.26
2022-08-11T08:30:51.386Z,31.79
2022-08-11T08:33:22.693Z,32.06
2022-08-11T08:35:56.449Z,31.61
2022-08-11T08:38:23.667Z,31.56
2022-08-11T08:40:56.028Z,33.32
2022-08-11T08:43:25.061Z,33.65
2022-08-11T08:45:56.866Z,33.46
2022-08-11T08:48:28.888Z,32.40
2022-08-11T08:51:10.992Z,32.73
2022-08-11T08:53:52.676Z,31.36
2022-08-11T08:56:29.112Z,31.30
2022-08-11T08:59:01.086Z,32.18
2022-08-11T09:01:38.251Z,31.69
2022-08-11T09:04:11.776Z,31.54
2022-08-11T09:06:41.683Z,31.83
2022-08-11T09:09:09.983Z,30.84
2022-08-11T09:11:40.318Z,31.18
2022-08-11T09:14:11.495Z,31.24
2022-08-11T09:16:41.484Z,33.16
2022-08-11T09:19:09.294Z,33.68
2022-08-11T09:21:49.008Z,34.45
2022-08-11T09:24:25.798Z,33.99
2022-08-11T09:26:53.934Z,33.92
2022-08-11T09:29:22.390Z,32.85
2022-08-11T09:31:49.366Z,33.50
2022-08-11T09:34:16.875Z,33.50
2022-08-11T09:36:45.383Z,35.07
2022-08-11T09:39:14.306Z,36.30
2022-08-11T09:42:01.756Z,35.12
2022-08-11T09:44:35.403Z,37.11
2022-08-11T09:47:03.291Z,36.96
2022-08-11T09:49:32.212Z,36.99
2022-08-11T09:52:04.980Z,35.80
2022-08-11T09:54:32.887Z,36.36
2022-08-11T09:57:04.676Z,36.99
2022-08-11T09:59:32.076Z,37.68
2022-08-11T10:02:02.264Z,37.93
2022-08-11T10:04:48.126Z,37.06
2022-08-11T10:07:18.803Z,38.19
2022-08-11T10:10:05.001Z,36.99
2022-08-11T10:12:41.845Z,36.81
2022-08-11T10:15:12.657Z,37.35
2022-08-11T10:17:44.605Z,36.81
2022-08-11T10:20:12.417Z,36.35
2022-08-11T10:22:40.478Z,36.83
2022-08-11T10:25:08.102Z,36.30
2022-08-11T10:28:16.625Z,36.24
2022-08-11T10:30:25.717Z,36.39
2022-08-11T10:33:00.282Z,36.27
2022-08-11T10:35:29.405Z,36.81
2022-08-11T10:38:08.688Z,36.71
2022-08-11T10:40:39.763Z,35.94
2022-08-11T10:43:08.905Z,36.11
2022-08-11T10:45:38.271Z,36.72
2022-08-11T10:48:09.997Z,35.81
2022-08-11T10:50:39.237Z,36.38
2022-08-11T10:53:07.908Z,35.04
2022-08-11T10:55:36.768Z,35.93
2022-08-11T10:58:04.749Z,35.99
2022-08-11T11:00:33.733Z,35.42
2022-08-11T11:03:22.249Z,35.71
2022-08-11T11:06:12.797Z,35.26
2022-08-11T11:11:18.585Z,33.69
2022-08-11T11:13:53.274Z,33.80
2022-08-11T11:16:24.718Z,33.49
2022-08-11T11:19:11.311Z,34.02
2022-08-11T11:21:39.777Z,33.61
2022-08-11T11:24:35.295Z,33.63
2022-08-11T11:27:29.385Z,32.57
2022-08-11T11:30:07.391Z,33.08
2022-08-11T11:33:01.804Z,32.66
2022-08-11T11:35:47.043Z,32.32
2022-08-11T11:38:14.576Z,32.76
2022-08-11T11:40:42.264Z,32.61
2022-08-11T11:43:10.943Z,32.80
2022-08-11T11:45:41.280Z,32.25
2022-08-11T11:48:09.176Z,32.74
2022-08-11T11:50:37.618Z,32.27
2022-08-11T11:53:09.091Z,32.92
2022-08-11T11:55:37.281Z,32.35
2022-08-11T11:58:05.924Z,31.42
2022-08-11T12:00:34.506Z,31.68
2022-08-11T12:03:09.404Z,31.39
2022-08-11T12:05:38.383Z,31.94
2022-08-11T12:08:12.728Z,31.69
2022-08-11T12:10:49.038Z,31.80
2022-08-11T12:13:18.273Z,31.35
2022-08-11T12:16:31.230Z,30.81
2022-08-11T12:18:35.097Z,30.80
2022-08-11T12:21:04.042Z,30.73
2022-08-11T12:23:34.918Z,31.24
2022-08-11T12:26:25.708Z,30.34
2022-08-11T12:28:51.083Z,30.24
2022-08-11T12:31:18.490Z,30.38
2022-08-11T12:33:45.139Z,31.01
2022-08-11T12:36:15.444Z,29.86
2022-08-11T12:38:51.364Z,29.71
2022-08-11T12:41:22.392Z,29.83
2022-08-11T12:43:57.204Z,30.45
2022-08-11T12:46:36.657Z,28.51
2022-08-11T12:49:15.281Z,27.93
2022-08-11T12:52:12.036Z,29.37
2022-08-11T12:54:45.092Z,27.45
2022-08-11T12:57:43.839Z,27.66
2022-08-11T13:00:11.738Z,25.82
2022-08-11T13:02:44.436Z,28.10
2022-08-11T13:05:16.532Z,26.30
2022-08-11T13:07:50.566Z,27.27
2022-08-11T13:10:20.720Z,28.13
2022-08-11T13:12:47.607Z,28.62
2022-08-11T13:15:22.301Z,29.52
2022-08-11T13:17:51.954Z,28.42
2022-08-11T13:20:22.554Z,28.71
2022-08-11T13:22:53.121Z,28.07
2022-08-11T13:25:23.726Z,27.80
2022-08-11T13:27:55.865Z,28.08
2022-08-11T13:30:31.227Z,29.43
2022-08-11T13:33:01.439Z,28.81
2022-08-11T13:35:33.000Z,28.34
2022-08-11T13:38:18.355Z,28.11
2022-08-11T13:40:55.589Z,28.10
2022-08-11T13:43:45.544Z,26.82
2022-08-11T13:46:14.409Z,25.54
2022-08-11T13:48:42.151Z,28.82
2022-08-11T13:51:11.543Z,28.90
2022-08-11T13:53:38.927Z,25.69
2022-08-11T13:56:06.347Z,25.25
2022-08-11T13:58:39.688Z,24.21
2022-08-11T14:02:19.794Z,24.38
2022-08-11T14:04:31.246Z,23.77
2022-08-11T14:06:56.727Z,24.99
2022-08-11T14:09:28.789Z,24.81
2022-08-11T14:12:22.742Z,23.75
2022-08-11T14:15:01.291Z,22.65
2022-08-11T14:17:48.739Z,23.27
2022-08-11T14:20:39.106Z,22.71
2022-08-11T14:23:13.444Z,25.03
2022-08-11T14:26:00.087Z,22.19
2022-08-11T14:28:36.560Z,24.84
2022-08-11T14:31:09.774Z,25.60
2022-08-11T14:34:00.200Z,23.71
2022-08-11T14:36:38.417Z,24.40
2022-08-11T14:39:13.475Z,23.22
2022-08-11T14:42:07.570Z,22.94
2022-08-11T14:44:35.336Z,23.27
2022-08-11T14:47:04.076Z,24.59
2022-08-11T14:49:33.705Z,23.86
2022-08-11T14:52:03.792Z,24.24
2022-08-11T14:54:32.764Z,24.01
2022-08-11T14:57:00.132Z,23.27
2022-08-11T14:59:27.450Z,23.34
2022-08-11T15:01:54.532Z,22.95
2022-08-11T15:04:34.545Z,24.06
2022-08-11T15:07:04.361Z,23.35
2022-08-11T15:12:34.683Z,22.58
2022-08-11T15:15:05.073Z,22.68
2022-08-11T15:17:42.785Z,23.07
2022-08-11T15:20:17.400Z,24.17
2022-08-11T15:22:44.142Z,23.53
2022-08-11T15:25:11.474Z,23.07
2022-08-11T15:27:41.042Z,21.63
2022-08-11T15:30:08.637Z,22.19
2022-08-11T15:32:41.813Z,21.31
2022-08-11T15:35:11.392Z,22.03
2022-08-11T15:37:43.967Z,21.49
2022-08-11T15:40:31.385Z,21.02
2022-08-11T15:43:29.199Z,22.02
2022-08-11T15:45:58.559Z,21.04
2022-08-11T15:48:34.240Z,20.88
2022-08-11T15:51:35.823Z,20.61
2022-08-11T15:54:16.387Z,21.33
2022-08-11T15:56:48.839Z,21.14
2022-08-11T15:59:43.106Z,21.63
2022-08-11T16:02:12.501Z,22.36
2022-08-11T16:04:46.425Z,22.59
2022-08-11T16:07:16.606Z,22.57
2022-08-11T16:10:06.595Z,22.19
2022-08-11T16:12:40.697Z,22.60
2022-08-11T16:15:10.790Z,22.98
2022-08-11T16:17:43.749Z,21.88
2022-08-11T16:20:14.343Z,22.33
2022-08-11T16:22:57.176Z,22.86
2022-08-11T16:27:06.893Z,23.13
2022-08-11T16:28:23.054Z,22.82
2022-08-11T16:30:53.363Z,23.14
2022-08-11T16:33:49.611Z,24.02
2022-08-11T16:36:14.692Z,24.71
2022-08-11T16:38:43.696Z,23.83
2022-08-11T16:41:18.596Z,24.36
2022-08-11T16:43:49.479Z,23.58
2022-08-11T16:46:19.918Z,23.94
2022-08-11T16:48:49.371Z,23.37
2022-08-11T16:51:17.181Z,22.80
2022-08-11T16:53:54.838Z,22.76
2022-08-11T16:56:37.371Z,22.62
2022-08-11T16:59:09.915Z,24.17
2022-08-11T17:01:39.614Z,25.19
2022-08-11T17:04:20.378Z,24.80
2022-08-11T17:06:52.087Z,25.55
2022-08-11T17:09:24.354Z,26.11
2022-08-11T17:11:58.021Z,26.41
2022-08-11T17:14:55.944Z,25.76
2022-08-11T17:17:32.984Z,27.03
2022-08-11T17:20:42.524Z,27.96
2022-08-11T17:22:55.733Z,27.61
2022-08-11T17:25:26.467Z,27.75
2022-08-11T17:27:55.631Z,27.55
2022-08-11T17:30:28.633Z,26.59
2022-08-11T17:33:00.606Z,25.74
2022-08-11T17:35:37.540Z,25.25
2022-08-11T17:38:09.759Z,25.71
2022-08-11T17:40:49.731Z,25.36
2022-08-11T17:43:20.147Z,26.19
2022-08-11T17:45:47.564Z,26.62
2022-08-11T17:48:16.348Z,27.48
2022-08-11T17:50:44.441Z,27.69
2022-08-11T17:53:14.660Z,28.66
2022-08-11T17:55:52.119Z,28.91
2022-08-11T17:58:23.178Z,29.00
2022-08-11T18:00:52.167Z,28.94
2022-08-11T18:03:22.072Z,29.06
2022-08-11T18:05:51.173Z,29.06
2022-08-11T18:08:20.277Z,29.13
2022-08-11T18:10:48.812Z,29.13
2022-08-11T18:13:20.158Z,29.63
2022-08-11T18:15:50.163Z,30.09
2022-08-11T18:18:22.979Z,29.76
2022-08-11T18:20:51.188Z,30.12
2022-08-11T18:23:21.628Z,30.25
2022-08-11T18:26:11.853Z,30.64
2022-08-11T18:28:54.281Z,30.53
2022-08-11T18:31:23.769Z,30.46
2022-08-11T18:34:06.332Z,30.46
2022-08-11T18:36:40.469Z,30.45
2022-08-11T18:39:12.086Z,30.23
2022-08-11T18:41:41.696Z,30.01
2022-08-11T18:44:12.627Z,30.21
2022-08-11T18:46:44.937Z,30.01
2022-08-11T18:49:20.681Z,30.34
2022-08-11T18:51:53.623Z,30.30
2022-08-11T18:54:24.562Z,30.40
2022-08-11T18:56:52.912Z,30.18
2022-08-11T18:59:25.548Z,30.58
2022-08-11T19:01:56.431Z,31.32
2022-08-11T19:04:29.835Z,31.20
2022-08-11T19:06:59.861Z,31.63
2022-08-11T19:09:30.068Z,31.95
2022-08-11T19:12:00.407Z,32.19
2022-08-11T19:14:30.841Z,32.71
2022-08-11T19:17:00.929Z,32.49
2022-08-11T19:19:31.879Z,32.54
2022-08-11T19:22:02.382Z,33.06
2022-08-11T19:24:32.531Z,33.09
2022-08-11T19:27:00.968Z,33.31
2022-08-11T19:30:07.786Z,33.57
2022-08-11T19:32:19.334Z,33.96
2022-08-11T19:34:48.398Z,33.83
2022-08-11T19:37:18.615Z,34.01
2022-08-11T19:39:49.891Z,33.95
2022-08-11T19:42:18.583Z,34.26
2022-08-11T19:44:46.882Z,34.26
2022-08-11T19:47:18.700Z,34.25
2022-08-11T19:49:48.498Z,34.49
2022-08-11T19:52:16.146Z,34.65
2022-08-11T19:54:45.034Z,34.53
2022-08-11T19:57:12.739Z,35.02
2022-08-11T19:59:40.614Z,35.24
2022-08-11T20:02:14.137Z,35.46
2022-08-11T20:04:42.733Z,35.36
2022-08-11T20:07:14.628Z,35.44
2022-08-11T20:10:04.931Z,35.89
2022-08-11T20:12:32.505Z,36.18
2022-08-11T20:15:00.756Z,36.11
2022-08-11T20:17:31.716Z,36.08
2022-08-11T20:20:03.724Z,36.21
2022-08-11T20:22:32.990Z,36.33
2022-08-11T20:25:01.873Z,36.27
2022-08-11T20:27:28.861Z,36.54
2022-08-11T20:29:58.574Z,36.61
2022-08-11T20:32:25.814Z,36.76
2022-08-11T20:34:55.346Z,36.73
2022-08-11T20:37:24.948Z,37.12
2022-08-11T20:39:55.823Z,36.96
2022-08-11T20:42:28.477Z,37.25
2022-08-11T20:44:59.873Z,37.35
2022-08-11T20:47:28.712Z,37.61
2022-08-11T20:50:02.933Z,37.54
2022-08-11T20:52:31.595Z,37.69
2022-08-11T20:55:00.989Z,37.90
2022-08-11T20:57:50.455Z,37.88
2022-08-11T21:00:19.308Z,37.77
2022-08-11T21:03:05.976Z,38.01
2022-08-11T21:06:09.100Z,38.05
2022-08-11T21:08:35.973Z,38.24
2022-08-11T21:11:02.850Z,38.32
2022-08-11T21:13:39.082Z,38.62
2022-08-11T21:16:08.183Z,38.73
2022-08-11T21:18:36.771Z,38.88
2022-08-11T21:21:09.301Z,38.45
2022-08-11T21:23:45.167Z,38.50
2022-08-11T21:26:18.914Z,38.66
2022-08-11T21:28:47.907Z,38.88
2022-08-11T21:31:18.082Z,38.90
2022-08-11T21:33:47.594Z,38.77
2022-08-11T21:36:15.490Z,39.07
2022-08-11T21:38:42.788Z,39.45
2022-08-11T21:41:12.560Z,39.51
2022-08-11T21:43:42.443Z,38.61
2022-08-11T21:46:10.897Z,38.81
2022-08-11T21:48:41.108Z,38.80
2022-08-11T21:51:07.772Z,38.60
2022-08-11T21:53:35.799Z,38.38
2022-08-11T21:56:03.849Z,38.72
2022-08-11T21:58:31.180Z,38.24
2022-08-11T22:00:58.625Z,38.24
2022-08-11T22:03:25.662Z,38.88
2022-08-11T22:05:56.003Z,38.36
2022-08-11T22:08:22.786Z,38.80
2022-08-11T22:10:50.131Z,39.03
2022-08-11T22:13:16.846Z,39.30
2022-08-11T22:15:43.720Z,39.74
2022-08-11T22:18:10.465Z,39.92
2022-08-11T22:20:40.180Z,40.03
2022-08-11T22:23:08.440Z,39.84
2022-08-11T22:25:38.823Z,39.88
2022-08-11T22:28:05.837Z,39.64
2022-08-11T22:30:33.558Z,38.96
2022-08-11T22:33:02.710Z,38.41
2022-08-11T22:35:33.014Z,38.29
2022-08-11T22:38:01.963Z,38.36
2022-08-11T22:40:28.856Z,38.47
2022-08-11T22:42:55.708Z,38.31
2022-08-11T22:45:22.628Z,38.53
2022-08-11T22:47:51.076Z,38.66
2022-08-11T22:50:18.413Z,39.11
2022-08-11T22:52:48.416Z,38.70
2022-08-11T22:55:16.118Z,38.88
2022-08-11T22:58:00.546Z,38.50
2022-08-11T23:00:30.538Z,38.81
2022-08-11T23:02:58.351Z,39.09
2022-08-11T23:05:26.017Z,37.51
2022-08-11T23:07:54.952Z,37.57
2022-08-11T23:10:22.927Z,38.40
2022-08-11T23:12:50.293Z,38.75
2022-08-11T23:15:17.567Z,39.60
2022-08-11T23:17:44.848Z,39.06
2022-08-11T23:20:29.792Z,40.10
2022-08-11T23:23:02.208Z,40.83
2022-08-11T23:25:31.234Z,40.20
2022-08-11T23:28:01.284Z,40.29
2022-08-11T23:30:29.280Z,38.22
2022-08-11T23:33:01.459Z,38.82
2022-08-11T23:35:39.210Z,38.84
2022-08-11T23:38:18.007Z,37.82
2022-08-11T23:40:45.775Z,39.67
2022-08-11T23:43:24.208Z,39.95
2022-08-11T23:45:51.095Z,39.85
2022-08-11T23:48:19.720Z,40.25
2022-08-11T23:50:48.125Z,40.58
2022-08-11T23:53:15.205Z,40.12
2022-08-11T23:55:41.986Z,39.50
2022-08-11T23:58:11.328Z,39.42
